Bartonsville, PA (18321)

4:05 PM EDT on July 30, 2016 (GMT -0400)
Pocono Laurel Lake | | Change Station

Elev 899 ft 41.02 °N, 75.28 °W | Updated 7 minutes ago

Thunderstorm
Thunderstorm
73.9 °F
Feels Like 71 °F
N
1.1
Wind Variable Wind from ESE

Today
High -- | Low -- °F
--% Chance of Precip.
Yesterday
High -- | Low -- °F
Precip. -- in
Pressure 30.03 in
Visibility 10.0 miles
Clouds Few 3300 ft
Mostly Cloudy 7500 ft
Overcast 10000 ft
Heat Index 71 °F
Dew Point 72 °F
Humidity 95%
Rainfall 0.20 in
Snow Depth Not available.
5:55 AM 8:18 PM
Waning Crescent, 11% visible
SPECI KMPO 301958Z AUTO 15009KT 10SM TS FEW033 BKN075 OVC100 24/19 A3003 RMK AO2 LTG DSNT SW-NW TSB58 T02390194
Pressure 30.03 in
Visibility 10.0 miles
Clouds Few 3300 ft
Mostly Cloudy 7500 ft
Overcast 10000 ft
Heat Index 71 °F
Dew Point 72 °F
Humidity 95%
Rainfall 0.20 in
Snow Depth Not available.
5:55 AM 8:18 PM
Waning Crescent, 11% visible
SPECI KMPO 301958Z AUTO 15009KT 10SM TS FEW033 BKN075 OVC100 24/19 A3003 RMK AO2 LTG DSNT SW-NW TSB58 T02390194

10-Day Weather Forecast

Almanac

Astronomy

Jul. 30, 2016 Rise Set
Actual Time
Civil Twilight
Nautical Twilight
Astronomical Twilight
Moon
Length of Visible Light
Length of Day
Tomorrow will be .
, % of the Moon is Illuminated

Today's Extremes

State Highs State Lows

Community

WunderPhotos

Upload Photos

1,928,630 photos uploaded!

WunderBlog® & News

Nearby

Air Quality

  Air Quality AQ Index Pollutant
Not available.

Snow Depth

Station Depth Elevation

Earthquake Activity

City Distance Mag. Time & Date
Minimum magnitude displayed is 2.5.

Coastal Water Temperatures

Place Temperature

Stations

Nearby Weather Stations

Station Location Temp. Windchill Dew Point Humidity Wind Precip. Elev Updated Type
                   

Watches & Warnings

There are currently no watches in effect.